createdAt,value
2022-09-24T00:04:12.077Z,100001.91
2022-09-24T00:09:16.632Z,100001.09
2022-09-24T00:14:19.657Z,100011.31
2022-09-24T00:19:23.530Z,100008.19
2022-09-24T00:24:47.935Z,100008.03
2022-09-24T00:29:50.536Z,100002.78
2022-09-24T00:34:54.857Z,99993.56
2022-09-24T00:39:57.528Z,99995.41
2022-09-24T00:45:00.969Z,99984.81
2022-09-24T00:50:14.165Z,99988.59
2022-09-24T00:55:17.331Z,99990.59
2022-09-24T01:00:20.136Z,99984.03
2022-09-24T01:05:24.040Z,99984.31
2022-09-24T01:10:51.111Z,99975.44
2022-09-24T01:15:58.375Z,99974.94
2022-09-24T01:21:12.849Z,99968.22
2022-09-24T01:26:26.201Z,99965.25
2022-09-24T01:31:33.336Z,99965.09
2022-09-24T01:36:37.670Z,99961.47
2022-09-24T01:41:40.648Z,99949.97
2022-09-24T01:46:44.637Z,99951.28
2022-09-24T01:51:49.557Z,99955.06
2022-09-24T01:56:55.492Z,99947.84
2022-09-24T02:02:05.605Z,99951.28
2022-09-24T02:07:13.402Z,99957.88
2022-09-24T02:12:17.726Z,99953.75
2022-09-24T02:17:23.174Z,99949.66
2022-09-24T02:22:26.520Z,99942.91
2022-09-24T02:27:29.542Z,99942.09
2022-09-24T02:32:35.661Z,99932.06
2022-09-24T02:37:40.918Z,99931.56
2022-09-24T02:42:43.856Z,99931.41
2022-09-24T02:47:48.407Z,99924.16
2022-09-24T02:52:50.980Z,99922.88
2022-09-24T02:57:53.815Z,99918.72
2022-09-24T03:02:57.935Z,99917.59
2022-09-24T03:08:00.539Z,99919.91
2022-09-24T03:13:03.088Z,99913.00
2022-09-24T03:18:07.489Z,99921.88
2022-09-24T03:23:10.060Z,99912.00
2022-09-24T03:28:12.671Z,99910.03
2022-09-24T03:33:16.613Z,99901.81
2022-09-24T03:38:19.219Z,99902.66
2022-09-24T03:43:22.053Z,99895.41
2022-09-24T03:48:26.773Z,99888.00
2022-09-24T03:53:29.339Z,99885.06
2022-09-24T03:58:32.145Z,99889.66
2022-09-24T04:03:36.643Z,99874.69
2022-09-24T04:08:39.213Z,99876.66
2022-09-24T04:13:41.770Z,99867.13
2022-09-24T04:18:48.694Z,99861.88
2022-09-24T04:23:51.326Z,99860.75
2022-09-24T04:28:53.903Z,99859.44
2022-09-24T04:33:57.824Z,99857.31
2022-09-24T04:39:00.470Z,99859.09
2022-09-24T04:44:03.778Z,99856.97
2022-09-24T04:49:09.591Z,99861.56
2022-09-24T04:54:12.470Z,99856.97
2022-09-24T04:59:15.050Z,99864.00
2022-09-24T05:04:19.056Z,99866.63
2022-09-24T05:09:21.639Z,99880.09
2022-09-24T05:14:24.220Z,99883.38
2022-09-24T05:19:28.136Z,99871.88
2022-09-24T05:24:30.815Z,99877.97
2022-09-24T05:29:33.493Z,99877.31
2022-09-24T05:34:37.473Z,99882.75
2022-09-24T05:39:40.183Z,99889.47
2022-09-24T05:44:44.810Z,99898.66
2022-09-24T05:49:50.358Z,99902.78
2022-09-24T05:54:57.178Z,99904.91
2022-09-24T05:59:59.747Z,99906.56
2022-09-24T06:05:03.725Z,99904.44
2022-09-24T06:10:08.188Z,99903.94
2022-09-24T06:15:12.394Z,99908.72
2022-09-24T06:20:16.444Z,99901.16
2022-09-24T06:25:19.046Z,99896.06
2022-09-24T06:30:21.622Z,99890.81
2022-09-24T06:35:25.568Z,99890.31
2022-09-24T06:40:31.366Z,99879.31
2022-09-24T06:45:38.547Z,99875.84
2022-09-24T06:50:45.061Z,99879.78
2022-09-24T06:55:47.787Z,99887.81
2022-09-24T07:00:54.522Z,99884.19
2022-09-24T07:06:01.694Z,99888.59
2022-09-24T07:11:04.445Z,99895.31
2022-09-24T07:16:07.507Z,99898.75
2022-09-24T07:21:11.628Z,99895.53
2022-09-24T07:26:14.295Z,99900.72
2022-09-24T07:31:17.738Z,99905.78
2022-09-24T07:36:21.818Z,99915.38
2022-09-24T07:41:24.777Z,99914.28
2022-09-24T07:46:27.654Z,99912.06
2022-09-24T07:51:31.685Z,99913.53
2022-09-24T07:56:34.938Z,99920.00
2022-09-24T08:01:37.814Z,99911.75
2022-09-24T08:06:47.262Z,99901.59
2022-09-24T08:11:50.939Z,99908.09
2022-09-24T08:16:53.639Z,99911.63
2022-09-24T08:21:58.682Z,99907.28
2022-09-24T08:27:04.583Z,99901.31
2022-09-24T08:32:07.549Z,99912.22
2022-09-24T08:37:11.442Z,99917.16
2022-09-24T08:42:36.456Z,99917.97
2022-09-24T08:47:45.683Z,99915.88
2022-09-24T08:53:01.370Z,99922.44
2022-09-24T08:58:22.673Z,99920.34
2022-09-24T09:03:32.734Z,99919.50
2022-09-24T09:09:01.689Z,99919.13
2022-09-24T09:14:10.841Z,99914.94
2022-09-24T09:19:15.505Z,99903.34
2022-09-24T09:24:23.253Z,99903.91
2022-09-24T09:29:28.185Z,99896.56
2022-09-24T09:34:42.034Z,99903.41
2022-09-24T09:39:50.828Z,99890.78
2022-09-24T09:44:53.603Z,99896.66
2022-09-24T09:49:58.842Z,99894.13
2022-09-24T09:55:05.983Z,99895.69
2022-09-24T10:00:26.606Z,99899.75
2022-09-24T10:05:29.546Z,99889.19
2022-09-24T10:10:33.609Z,99890.28
2022-09-24T10:15:45.350Z,99892.59
2022-09-24T10:20:49.464Z,99887.97
2022-09-24T10:25:59.646Z,99886.22
2022-09-24T10:31:07.188Z,99893.19
2022-09-24T10:36:16.087Z,99891.16
2022-09-24T10:41:27.121Z,99893.22
2022-09-24T10:47:01.705Z,99894.22
2022-09-24T10:52:10.307Z,99903.16
2022-09-24T10:57:25.266Z,99898.38
2022-09-24T11:02:59.826Z,99880.44
2022-09-24T11:08:18.798Z,99882.97
2022-09-24T11:13:28.028Z,99880.97
2022-09-24T11:18:38.836Z,99870.22
2022-09-24T11:23:54.402Z,99859.91
2022-09-24T11:29:10.610Z,99860.88
2022-09-24T11:34:30.534Z,99856.78
2022-09-24T11:39:44.606Z,99854.28
2022-09-24T11:44:58.143Z,99843.91
2022-09-24T11:50:13.317Z,99837.59
2022-09-24T11:55:21.142Z,99849.28
2022-09-24T12:00:29.684Z,99834.59
2022-09-24T12:05:35.321Z,99842.44
2022-09-24T12:10:40.247Z,99829.53
2022-09-24T12:15:49.081Z,99828.31
2022-09-24T12:20:54.269Z,99826.44
2022-09-24T12:25:59.151Z,99825.75
2022-09-24T12:31:32.737Z,99818.06
2022-09-24T12:36:56.944Z,99822.38
2022-09-24T12:42:02.825Z,99820.00
2022-09-24T12:47:16.306Z,99825.44
2022-09-24T12:52:29.711Z,99814.41
2022-09-24T12:57:36.077Z,99808.78
2022-09-24T13:02:47.867Z,99801.16
2022-09-24T13:07:59.659Z,99799.00
2022-09-24T13:13:03.010Z,99793.31
2022-09-24T13:18:22.287Z,99795.09
2022-09-24T13:23:45.218Z,99780.50
2022-09-24T13:28:55.379Z,99779.28
2022-09-24T13:34:02.698Z,99788.47
2022-09-24T13:39:11.553Z,99782.78
2022-09-24T13:44:18.314Z,99788.25
2022-09-24T13:49:23.142Z,99796.69
2022-09-24T13:54:30.134Z,99790.94
2022-09-24T13:59:32.782Z,99786.53
2022-09-24T14:04:41.987Z,99783.94
2022-09-24T14:09:47.610Z,99779.22
2022-09-24T14:14:57.345Z,99776.34
2022-09-24T14:20:01.256Z,99775.16
2022-09-24T14:25:08.600Z,99770.19
2022-09-24T14:30:20.075Z,99775.03
2022-09-24T14:35:29.997Z,99781.56
2022-09-24T14:40:40.433Z,99776.47
2022-09-24T14:45:43.313Z,99771.03
2022-09-24T14:50:47.517Z,99773.59
2022-09-24T14:55:50.782Z,99776.16
2022-09-24T15:00:56.034Z,99777.47
2022-09-24T15:06:18.058Z,99777.28
2022-09-24T15:11:21.270Z,99778.31
2022-09-24T15:16:30.353Z,99769.31
2022-09-24T15:21:34.913Z,99775.22
2022-09-24T15:26:40.467Z,99766.00
2022-09-24T15:31:43.423Z,99772.31
2022-09-24T15:36:49.415Z,99769.34
2022-09-24T15:41:52.240Z,99770.97
2022-09-24T15:46:55.023Z,99764.19
2022-09-24T15:52:01.917Z,99761.00
2022-09-24T15:57:04.832Z,99760.19
2022-09-24T16:02:15.918Z,99771.13
2022-09-24T16:07:19.962Z,99767.00
2022-09-24T16:12:27.823Z,99768.75
2022-09-24T16:17:30.780Z,99775.19
2022-09-24T16:22:38.444Z,99769.03
2022-09-24T16:27:41.220Z,99778.38
2022-09-24T16:32:44.283Z,99784.59
2022-09-24T16:37:48.313Z,99782.88
2022-09-24T16:42:50.990Z,99781.69
2022-09-24T16:47:53.615Z,99779.47
2022-09-24T16:52:57.639Z,99790.09
2022-09-24T16:58:00.659Z,99790.75
2022-09-24T17:03:03.468Z,99786.66
2022-09-24T17:08:07.532Z,99790.34
2022-09-24T17:13:10.318Z,99781.97
2022-09-24T17:18:13.034Z,99783.63
2022-09-24T17:23:17.198Z,99785.44
2022-09-24T17:28:19.864Z,99785.44
2022-09-24T17:33:42.360Z,99788.50
2022-09-24T17:38:46.819Z,99794.41
2022-09-24T17:43:49.581Z,99801.75
2022-09-24T17:48:54.309Z,99809.09
2022-09-24T17:53:58.443Z,99806.44
2022-09-24T17:59:01.426Z,99805.78
2022-09-24T18:04:05.926Z,99802.94
2022-09-24T18:09:11.354Z,99808.63
2022-09-24T18:14:17.052Z,99816.13
2022-09-24T18:19:19.914Z,99815.09
2022-09-24T18:24:24.252Z,99825.69
2022-09-24T18:29:27.604Z,99826.28
2022-09-24T18:34:30.821Z,99826.66
2022-09-24T18:39:35.017Z,99816.22
2022-09-24T18:44:37.781Z,99821.94
2022-09-24T18:49:40.593Z,99819.06
2022-09-24T18:54:44.787Z,99823.06
2022-09-24T18:59:48.694Z,99814.69
2022-09-24T19:04:51.363Z,99815.66
2022-09-24T19:09:55.650Z,99815.00
2022-09-24T19:15:00.298Z,99818.78
2022-09-24T19:20:03.378Z,99808.75
2022-09-24T19:25:08.505Z,99817.81
2022-09-24T19:30:12.424Z,99811.66
2022-09-24T19:35:15.199Z,99816.69
2022-09-24T19:40:19.653Z,99808.09
2022-09-24T19:45:22.391Z,99807.59
2022-09-24T19:50:25.012Z,99813.28
2022-09-24T19:55:30.485Z,99801.63
2022-09-24T20:00:33.476Z,99808.13
2022-09-24T20:05:36.314Z,99811.16
2022-09-24T20:10:40.903Z,99814.31
2022-09-24T20:15:43.985Z,99815.63
2022-09-24T20:20:46.764Z,99809.72
2022-09-24T20:26:12.640Z,99802.59
2022-09-24T20:31:20.781Z,99816.28
2022-09-24T20:36:24.913Z,99808.72
2022-09-24T20:41:29.439Z,99808.88
2022-09-24T20:46:32.249Z,99812.34
2022-09-24T20:51:35.118Z,99822.09
2022-09-24T20:56:39.265Z,99823.56
2022-09-24T21:01:42.797Z,99822.50
2022-09-24T21:06:46.176Z,99827.59
2022-09-24T21:11:50.484Z,99823.69
2022-09-24T21:16:55.024Z,99824.03
2022-09-24T21:21:59.444Z,99827.47
2022-09-24T21:27:05.222Z,99820.47
2022-09-24T21:32:07.838Z,99831.41
2022-09-24T21:37:13.287Z,99833.69
2022-09-24T21:42:19.769Z,99830.31
2022-09-24T21:47:22.451Z,99832.44
2022-09-24T21:52:26.617Z,99828.09
2022-09-24T21:57:30.777Z,99836.84
2022-09-24T22:02:33.524Z,99836.38
2022-09-24T22:07:36.546Z,99831.84
2022-09-24T22:12:40.648Z,99829.47
2022-09-24T22:17:43.376Z,99836.47
2022-09-24T22:22:46.044Z,99828.16
2022-09-24T22:27:49.986Z,99818.00
2022-09-24T22:32:52.582Z,99831.91
2022-09-24T22:37:55.744Z,99838.25
2022-09-24T22:42:59.830Z,99834.41
2022-09-24T22:48:03.371Z,99836.03
2022-09-24T22:53:05.982Z,99836.91
2022-09-24T22:58:09.985Z,99837.06
2022-09-24T23:03:12.555Z,99833.22
2022-09-24T23:08:15.186Z,99835.31
2022-09-24T23:13:19.119Z,99833.56
2022-09-24T23:18:21.703Z,99836.72
2022-09-24T23:23:24.299Z,99836.59
2022-09-24T23:28:29.595Z,99843.41
2022-09-24T23:33:33.570Z,99845.44
2022-09-24T23:38:36.533Z,99840.56
2022-09-24T23:43:41.054Z,99832.78
2022-09-24T23:48:43.810Z,99830.69
2022-09-24T23:53:46.398Z,99826.66
2022-09-24T23:58:50.351Z,99835.72
